Time,TemperatureF,DewpointF,PressureIn,WindDirection,WindDirectionDegrees,WindSpeedMPH,WindSpeedGustMPH,Humidity,HourlyPrecipIn,Conditions,Clouds,dailyrainin,SoftwareType,DateUTC
2013-08-08 00:04:00,55.9,49.5,29.35,SSE,158,3.6,5.4,79,0.00,CLR,SCT,0.00,WeatherDisplay:10.37,2013-08-08 08:04:00,
2013-08-08 00:09:00,55.9,49.2,29.35,ENE,68,7.1,7.1,78,0.00,CLR,SCT,0.00,WeatherDisplay:10.37,2013-08-08 08:09:00,
2013-08-08 00:14:00,55.8,49.0,29.35,ENE,68,4.6,4.6,78,0.00,CLR,SCT,0.00,WeatherDisplay:10.37,2013-08-08 08:14:00,
2013-08-08 00:19:00,55.8,48.7,29.35,ENE,68,4.6,4.6,77,0.00,CLR,SCT,0.00,WeatherDisplay:10.37,2013-08-08 08:19:00,
2013-08-08 00:24:00,55.8,48.7,29.35,ENE,68,4.0,0.0,77,0.00,CLR,SCT,0.00,WeatherDisplay:10.37,2013-08-08 08:24:00,
2013-08-08 00:29:00,55.8,49.0,29.35,SE,135,8.1,8.1,78,0.04,RA,SCT,0.04,WeatherDisplay:10.37,2013-08-08 08:29:00,
2013-08-08 00:34:00,55.8,49.0,29.35,ENE,68,3.5,0.0,78,0.04,RA,SCT,0.04,WeatherDisplay:10.37,2013-08-08 08:34:00,
2013-08-08 00:39:00,55.6,49.2,29.35,East,90,7.6,7.6,79,0.04,CLR,SCT,0.04,WeatherDisplay:10.37,2013-08-08 08:39:00,
2013-08-08 00:44:00,55.4,49.3,29.35,SSW,202,2.3,3.1,80,0.04,CLR,SCT,0.04,WeatherDisplay:10.37,2013-08-08 08:44:00,
2013-08-08 00:49:00,55.2,49.5,29.35,ENE,68,4.6,4.6,81,0.04,CLR,SCT,0.04,WeatherDisplay:10.37,2013-08-08 08:49:00,
2013-08-08 00:54:00,55.2,49.8,29.35,ENE,68,3.1,3.1,82,0.04,CLR,SCT,0.04,WeatherDisplay:10.37,2013-08-08 08:54:00,
2013-08-08 00:59:00,55.0,50.0,29.35,ENE,68,3.5,0.0,83,0.04,CLR,SCT,0.04,WeatherDisplay:10.37,2013-08-08 08:59:00,
2013-08-08 01:04:00,55.0,50.0,29.35,ENE,68,4.6,4.6,83,0.04,CLR,SCT,0.04,WeatherDisplay:10.37,2013-08-08 09:04:00,
2013-08-08 01:09:00,55.0,50.0,29.35,ENE,68,4.0,4.0,83,0.04,CLR,SCT,0.04,WeatherDisplay:10.37,2013-08-08 09:09:00,
2013-08-08 01:14:00,54.9,50.1,29.35,SSE,158,4.6,4.6,84,0.04,CLR,SCT,0.04,WeatherDisplay:10.37,2013-08-08 09:14:00,
2013-08-08 01:19:00,54.9,50.1,29.35,ENE,68,3.5,0.0,84,0.04,CLR,SCT,0.04,WeatherDisplay:10.37,2013-08-08 09:19:00,
2013-08-08 01:24:00,55.0,50.3,29.35,ENE,68,6.2,0.0,84,0.04,CLR,SCT,0.04,WeatherDisplay:10.37,2013-08-08 09:24:00,
2013-08-08 01:30:00,55.0,50.6,29.35,SSE,158,3.5,0.0,85,0.00,CLR,SCT,0.04,WeatherDisplay:10.37,2013-08-08 09:30:00,
2013-08-08 01:35:00,55.0,50.6,29.35,ENE,68,3.5,0.0,85,0.00,CLR,SCT,0.04,WeatherDisplay:10.37,2013-08-08 09:35:00,
2013-08-08 01:40:00,55.0,50.9,29.35,NNE,22,4.6,4.6,86,0.00,CLR,SCT,0.04,WeatherDisplay:10.37,2013-08-08 09:40:00,
2013-08-08 01:45:00,55.0,50.9,29.35,ENE,68,7.6,0.0,86,0.00,CLR,SCT,0.04,WeatherDisplay:10.37,2013-08-08 09:45:00,
2013-08-08 01:50:00,54.9,50.4,29.35,East,90,3.5,0.0,85,0.00,CLR,SCT,0.04,WeatherDisplay:10.37,2013-08-08 09:50:00,
2013-08-08 01:55:00,54.9,50.1,29.35,ENE,68,4.0,0.0,84,0.00,CLR,SCT,0.04,WeatherDisplay:10.37,2013-08-08 09:55:00,
2013-08-08 02:00:00,54.9,50.1,29.35,NE,45,4.6,4.6,84,0.00,CLR,SCT,0.04,WeatherDisplay:10.37,2013-08-08 10:00:00,
2013-08-08 02:05:00,54.9,50.1,29.35,ENE,68,0.0,0.0,84,0.00,CLR,SCT,0.04,WeatherDisplay:10.37,2013-08-08 10:05:00,
2013-08-08 02:10:00,55.0,50.3,29.35,ENE,68,2.3,0.0,84,0.00,CLR,SCT,0.04,WeatherDisplay:10.37,2013-08-08 10:10:00,
2013-08-08 02:15:00,54.9,50.1,29.35,ENE,68,3.5,0.0,84,0.00,CLR,SCT,0.04,WeatherDisplay:10.37,2013-08-08 10:15:00,
2013-08-08 02:20:00,54.9,50.1,29.35,SE,135,4.6,4.6,84,0.00,CLR,SCT,0.04,WeatherDisplay:10.37,2013-08-08 10:20:00,
2013-08-08 02:25:00,55.0,50.3,29.35,SE,135,0.0,0.0,84,0.00,CLR,SCT,0.04,WeatherDisplay:10.37,2013-08-08 10:25:00,
2013-08-08 02:30:00,54.9,50.4,29.32,SW,225,0.0,0.0,85,0.00,CLR,SCT,0.04,WeatherDisplay:10.37,2013-08-08 10:30:00,
2013-08-08 02:35:00,55.0,50.6,29.32,East,90,0.0,0.0,85,0.00,CLR,SCT,0.04,WeatherDisplay:10.37,2013-08-08 10:35:00,
2013-08-08 02:40:00,54.9,50.4,29.32,East,90,0.0,0.0,85,0.00,CLR,SCT,0.04,WeatherDisplay:10.37,2013-08-08 10:40:00,
2013-08-08 02:45:00,54.9,50.4,29.32,East,90,0.0,0.0,85,0.00,CLR,SCT,0.04,WeatherDisplay:10.37,2013-08-08 10:45:00,
2013-08-08 02:50:00,54.5,49.8,29.32,SE,135,0.0,0.0,84,0.00,CLR,SCT,0.04,WeatherDisplay:10.37,2013-08-08 10:50:00,
2013-08-08 02:55:00,54.5,49.8,29.32,SE,135,0.0,0.0,84,0.00,CLR,SCT,0.04,WeatherDisplay:10.37,2013-08-08 10:55:00,
2013-08-08 03:00:00,54.3,49.6,29.35,SE,135,0.0,0.0,84,0.00,CLR,SCT,0.04,WeatherDisplay:10.37,2013-08-08 11:00:00,
2013-08-08 03:05:00,54.3,49.3,29.35,SE,135,0.0,0.0,83,0.00,CLR,SCT,0.04,WeatherDisplay:10.37,2013-08-08 11:05:00,
2013-08-08 03:10:00,54.3,49.6,29.35,SE,135,0.0,0.0,84,0.00,CLR,SCT,0.04,WeatherDisplay:10.37,2013-08-08 11:10:00,
2013-08-08 03:15:00,54.3,49.6,29.35,SSE,158,0.0,0.0,84,0.00,CLR,SCT,0.04,WeatherDisplay:10.37,2013-08-08 11:15:00,
2013-08-08 03:20:00,54.3,49.3,29.35,SSE,158,2.6,0.0,83,0.00,CLR,SCT,0.04,WeatherDisplay:10.37,2013-08-08 11:20:00,
2013-08-08 03:25:00,54.5,49.1,29.35,SSE,158,2.6,0.0,82,0.00,CLR,SCT,0.04,WeatherDisplay:10.37,2013-08-08 11:25:00,
2013-08-08 03:30:00,54.5,48.5,29.35,SSE,158,0.0,0.0,80,0.00,CLR,SCT,0.04,WeatherDisplay:10.37,2013-08-08 11:30:00,
2013-08-08 03:35:00,54.5,48.5,29.35,SSE,158,3.5,0.0,80,0.00,CLR,SCT,0.04,WeatherDisplay:10.37,2013-08-08 11:35:00,
2013-08-08 03:40:00,54.5,48.5,29.35,SSE,158,3.5,3.5,80,0.00,CLR,SCT,0.04,WeatherDisplay:10.37,2013-08-08 11:40:00,
2013-08-08 03:45:00,54.5,48.5,29.35,SSE,158,0.0,0.0,80,0.00,CLR,SCT,0.04,WeatherDisplay:10.37,2013-08-08 11:45:00,
2013-08-08 03:50:00,54.5,48.8,29.35,ESE,112,0.0,0.0,81,0.00,CLR,SCT,0.04,WeatherDisplay:10.37,2013-08-08 11:50:00,
2013-08-08 03:55:00,54.5,49.4,29.35,SSE,158,2.3,0.0,83,0.00,CLR,SCT,0.04,WeatherDisplay:10.37,2013-08-08 11:55:00,
2013-08-08 04:00:00,54.5,49.8,29.35,SSE,158,0.0,0.0,84,0.00,CLR,SCT,0.04,WeatherDisplay:10.37,2013-08-08 12:00:00,
2013-08-08 04:05:00,54.5,49.4,29.35,South,180,3.5,0.0,83,0.00,CLR,SCT,0.04,WeatherDisplay:10.37,2013-08-08 12:05:00,
2013-08-08 04:10:00,54.5,48.8,29.35,SSE,158,3.5,0.0,81,0.00,CLR,SCT,0.04,WeatherDisplay:10.37,2013-08-08 12:10:00,
2013-08-08 04:15:00,54.7,48.0,29.35,SSE,158,3.5,3.5,78,0.00,CLR,SCT,0.04,WeatherDisplay:10.37,2013-08-08 12:15:00,
2013-08-08 04:20:00,54.9,47.8,29.35,SSE,158,3.5,3.5,77,0.00,CLR,SCT,0.04,WeatherDisplay:10.37,2013-08-08 12:20:00,
2013-08-08 04:25:00,54.9,47.4,29.35,SSE,158,0.0,0.0,76,0.00,CLR,SCT,0.04,WeatherDisplay:10.37,2013-08-08 12:25:00,
2013-08-08 04:30:00,54.7,47.6,29.35,SSE,158,0.0,0.0,77,0.00,CLR,SCT,0.04,WeatherDisplay:10.37,2013-08-08 12:30:00,
2013-08-08 04:35:00,54.5,47.8,29.35,SSW,202,0.0,0.0,78,0.00,CLR,SCT,0.04,WeatherDisplay:10.37,2013-08-08 12:35:00,
2013-08-08 04:40:00,54.1,48.4,29.35,NW,315,2.3,0.0,81,0.00,CLR,SCT,0.04,WeatherDisplay:10.37,2013-08-08 12:40:00,
2013-08-08 04:45:00,54.1,49.1,29.35,NNW,338,2.6,0.0,83,0.00,CLR,SCT,0.04,WeatherDisplay:10.37,2013-08-08 12:45:00,
2013-08-08 04:50:00,54.1,50.0,29.35,NNW,338,0.0,0.0,86,0.00,CLR,SCT,0.04,WeatherDisplay:10.37,2013-08-08 12:50:00,
2013-08-08 04:55:00,54.3,50.8,29.35,NNW,338,0.0,0.0,88,0.00,CLR,SCT,0.04,WeatherDisplay:10.37,2013-08-08 12:55:00,
2013-08-08 05:00:00,54.7,51.5,29.35,NW,315,2.6,0.0,89,0.00,CLR,SCT,0.04,WeatherDisplay:10.37,2013-08-08 13:00:00,
2013-08-08 05:05:00,54.9,52.3,29.35,WNW,292,0.0,0.0,91,0.00,CLR,SCT,0.04,WeatherDisplay:10.37,2013-08-08 13:05:00,
2013-08-08 05:10:00,55.2,52.6,29.35,NW,315,2.3,2.3,91,0.00,CLR,SCT,0.04,WeatherDisplay:10.37,2013-08-08 13:10:00,
2013-08-08 05:15:00,55.6,53.3,29.35,NW,315,0.0,0.0,92,0.00,CLR,SCT,0.04,WeatherDisplay:10.37,2013-08-08 13:15:00,
2013-08-08 05:20:00,55.9,53.6,29.35,NW,315,2.6,2.6,92,0.00,CLR,SCT,0.04,WeatherDisplay:10.37,2013-08-08 13:20:00,
2013-08-08 05:25:00,55.9,53.6,29.35,NW,315,3.6,3.6,92,0.00,CLR,SCT,0.04,WeatherDisplay:10.37,2013-08-08 13:25:00,
2013-08-08 05:30:00,56.1,54.1,29.35,NNW,338,5.8,5.8,93,0.00,CLR,SCT,0.04,WeatherDisplay:10.37,2013-08-08 13:30:00,
2013-08-08 05:35:00,56.3,54.3,29.35,North,0,3.5,3.5,93,0.00,CLR,SCT,0.04,WeatherDisplay:10.37,2013-08-08 13:35:00,
2013-08-08 05:40:00,56.5,54.5,29.35,North,0,0.0,0.0,93,0.00,CLR,SCT,0.04,WeatherDisplay:10.37,2013-08-08 13:40:00,
2013-08-08 05:45:00,56.5,54.8,29.35,NNW,338,2.3,0.0,94,0.00,CLR,SCT,0.04,WeatherDisplay:10.37,2013-08-08 13:45:00,
2013-08-08 05:50:00,56.7,55.0,29.35,NNW,338,0.0,0.0,94,0.00,CLR,SCT,0.04,WeatherDisplay:10.37,2013-08-08 13:50:00,
2013-08-08 05:55:00,56.7,55.0,29.35,NNW,338,2.3,0.0,94,0.00,CLR,SCT,0.04,WeatherDisplay:10.37,2013-08-08 13:55:00,
2013-08-08 06:00:00,56.8,55.1,29.35,NNW,338,0.0,0.0,94,0.00,CLR,SCT,0.04,WeatherDisplay:10.37,2013-08-08 14:00:00,
2013-08-08 06:05:00,57.0,55.3,29.35,NNW,338,2.3,0.0,94,0.00,CLR,SCT,0.04,WeatherDisplay:10.37,2013-08-08 14:05:00,
2013-08-08 06:10:00,57.0,55.3,29.35,NNW,338,0.0,0.0,94,0.00,CLR,SCT,0.04,WeatherDisplay:10.37,2013-08-08 14:10:00,
2013-08-08 06:15:00,57.2,55.5,29.35,NNW,338,0.0,0.0,94,0.00,CLR,SCT,0.04,WeatherDisplay:10.37,2013-08-08 14:15:00,
2013-08-08 06:21:00,57.2,55.5,29.35,NNW,338,0.0,0.0,94,0.00,CLR,SCT,0.04,WeatherDisplay:10.37,2013-08-08 14:21:00,
2013-08-08 06:26:00,57.4,55.7,29.35,NNW,338,2.3,0.0,94,0.00,CLR,SCT,0.04,WeatherDisplay:10.37,2013-08-08 14:26:00,
2013-08-08 06:31:00,57.6,55.8,29.35,NNW,338,2.3,0.0,94,0.00,CLR,SCT,0.04,WeatherDisplay:10.37,2013-08-08 14:31:00,
2013-08-08 06:36:00,57.6,55.8,29.35,NNW,338,0.0,0.0,94,0.00,CLR,SCT,0.04,WeatherDisplay:10.37,2013-08-08 14:36:00,
2013-08-08 06:41:00,57.7,56.0,29.35,NNW,338,0.0,0.0,94,0.00,CLR,SCT,0.04,WeatherDisplay:10.37,2013-08-08 14:41:00,
2013-08-08 06:46:00,57.7,56.0,29.38,NNW,338,0.0,0.0,94,0.00,CLR,SCT,0.04,WeatherDisplay:10.37,2013-08-08 14:46:00,
2013-08-08 06:51:00,57.9,56.2,29.38,NNW,338,0.0,0.0,94,0.00,CLR,SCT,0.04,WeatherDisplay:10.37,2013-08-08 14:51:00,
2013-08-08 06:56:00,57.9,56.5,29.38,NNW,338,0.0,0.0,95,0.00,CLR,SCT,0.04,WeatherDisplay:10.37,2013-08-08 14:56:00,
2013-08-08 07:01:00,58.1,56.7,29.38,NNW,338,0.0,0.0,95,0.00,CLR,SCT,0.04,WeatherDisplay:10.37,2013-08-08 15:01:00,
2013-08-08 07:06:00,58.3,56.9,29.38,NNW,338,0.0,0.0,95,0.00,CLR,SCT,0.04,WeatherDisplay:10.37,2013-08-08 15:06:00,
2013-08-08 07:11:00,58.5,57.0,29.38,NNW,338,0.0,0.0,95,0.00,CLR,SCT,0.04,WeatherDisplay:10.37,2013-08-08 15:11:00,
2013-08-08 07:16:00,58.5,57.0,29.35,NNW,338,0.0,0.0,95,0.00,CLR,SCT,0.04,WeatherDisplay:10.37,2013-08-08 15:16:00,
2013-08-08 07:21:00,58.6,57.2,29.35,NNW,338,3.1,0.0,95,0.00,CLR,SCT,0.04,WeatherDisplay:10.37,2013-08-08 15:21:00,
2013-08-08 07:26:00,58.8,57.4,29.35,NNW,338,2.3,0.0,95,0.00,CLR,SCT,0.04,WeatherDisplay:10.37,2013-08-08 15:26:00,
2013-08-08 07:31:00,59.0,57.6,29.35,NNW,338,0.0,0.0,95,0.00,CLR,SCT,0.04,WeatherDisplay:10.37,2013-08-08 15:31:00,
2013-08-08 07:36:00,59.2,57.7,29.35,NNW,338,0.0,0.0,95,0.00,CLR,SCT,0.04,WeatherDisplay:10.37,2013-08-08 15:36:00,
2013-08-08 07:41:00,59.4,57.9,29.35,NNW,338,0.0,0.0,95,0.00,CLR,SCT,0.04,WeatherDisplay:10.37,2013-08-08 15:41:00,
2013-08-08 07:46:00,59.4,57.9,29.35,NNW,338,0.0,0.0,95,0.00,CLR,SCT,0.04,WeatherDisplay:10.37,2013-08-08 15:46:00,
2013-08-08 07:51:00,59.4,57.9,29.35,NNW,338,0.0,0.0,95,0.00,CLR,SCT,0.04,WeatherDisplay:10.37,2013-08-08 15:51:00,
2013-08-08 07:56:00,59.2,57.7,29.35,NNW,338,2.3,2.3,95,0.00,CLR,SCT,0.04,WeatherDisplay:10.37,2013-08-08 15:56:00,
2013-08-08 08:01:00,59.0,57.6,29.35,NNW,338,4.6,0.0,95,0.00,CLR,SCT,0.04,WeatherDisplay:10.37,2013-08-08 16:01:00,
2013-08-08 08:06:00,59.0,57.6,29.35,NNW,338,0.0,0.0,95,0.00,CLR,SCT,0.04,WeatherDisplay:10.37,2013-08-08 16:06:00,
2013-08-08 08:11:00,59.0,57.6,29.35,NNW,338,2.3,0.0,95,0.00,CLR,SCT,0.04,WeatherDisplay:10.37,2013-08-08 16:11:00,
2013-08-08 08:16:00,59.0,57.6,29.35,NNW,338,0.0,0.0,95,0.00,CLR,SCT,0.04,WeatherDisplay:10.37,2013-08-08 16:16:00,
2013-08-08 08:21:00,59.0,57.6,29.35,NNW,338,0.0,0.0,95,0.00,CLR,SCT,0.04,WeatherDisplay:10.37,2013-08-08 16:21:00,
2013-08-08 08:26:00,59.2,57.7,29.35,NNW,338,0.0,0.0,95,0.00,CLR,SCT,0.04,WeatherDisplay:10.37,2013-08-08 16:26:00,
2013-08-08 08:31:00,58.8,57.4,29.35,NNW,338,0.0,0.0,95,0.00,CLR,SCT,0.04,WeatherDisplay:10.37,2013-08-08 16:31:00,
2013-08-08 08:36:00,58.8,57.4,29.35,NNW,338,0.0,0.0,95,0.00,CLR,SCT,0.04,WeatherDisplay:10.37,2013-08-08 16:36:00,
2013-08-08 08:41:00,58.6,57.2,29.35,NNW,338,0.0,0.0,95,0.00,CLR,SCT,0.04,WeatherDisplay:10.37,2013-08-08 16:41:00,
2013-08-08 08:46:00,58.5,57.0,29.38,NNW,338,0.0,0.0,95,0.00,CLR,SCT,0.04,WeatherDisplay:10.37,2013-08-08 16:46:00,
2013-08-08 08:51:00,58.3,56.9,29.38,NNW,338,0.0,0.0,95,0.00,CLR,SCT,0.04,WeatherDisplay:10.37,2013-08-08 16:51:00,
2013-08-08 08:56:00,57.2,55.5,29.38,NNW,338,0.0,0.0,94,0.00,CLR,SCT,0.04,WeatherDisplay:10.37,2013-08-08 16:56:00,
2013-08-08 09:01:00,57.0,55.3,29.38,NNW,338,0.0,0.0,94,0.00,CLR,SCT,0.04,WeatherDisplay:10.37,2013-08-08 17:01:00,
2013-08-08 09:06:00,57.0,55.3,29.38,NNW,338,0.0,0.0,94,0.00,CLR,SCT,0.04,WeatherDisplay:10.37,2013-08-08 17:06:00,
2013-08-08 09:11:00,57.0,55.3,29.38,NNW,338,0.0,0.0,94,0.00,CLR,SCT,0.04,WeatherDisplay:10.37,2013-08-08 17:11:00,
2013-08-08 09:16:00,56.8,54.8,29.35,NNW,338,0.0,0.0,93,0.00,CLR,SCT,0.04,WeatherDisplay:10.37,2013-08-08 17:16:00,
2013-08-08 09:21:00,55.6,53.3,29.35,NNW,338,0.0,0.0,92,0.00,CLR,SCT,0.04,WeatherDisplay:10.37,2013-08-08 17:21:00,
2013-08-08 09:26:00,55.6,53.0,29.35,NNW,338,0.0,0.0,91,0.00,CLR,SCT,0.04,WeatherDisplay:10.37,2013-08-08 17:26:00,
2013-08-08 09:31:00,55.8,52.9,29.38,NNW,338,0.0,0.0,90,0.00,CLR,SCT,0.04,WeatherDisplay:10.37,2013-08-08 17:31:00,
2013-08-08 09:36:00,55.8,52.6,29.38,NNW,338,0.0,0.0,89,0.00,CLR,SCT,0.04,WeatherDisplay:10.37,2013-08-08 17:36:00,
2013-08-08 09:41:00,56.8,53.6,29.38,NNW,338,0.0,0.0,89,0.00,CLR,SCT,0.04,WeatherDisplay:10.37,2013-08-08 17:41:00,
2013-08-08 09:46:00,57.0,53.2,29.38,NNW,338,2.2,0.0,87,0.00,CLR,SCT,0.04,WeatherDisplay:10.37,2013-08-08 17:46:00,
2013-08-08 09:51:00,57.4,52.6,29.38,North,0,0.0,0.0,84,0.00,CLR,SCT,0.04,WeatherDisplay:10.37,2013-08-08 17:51:00,
2013-08-08 09:56:00,57.2,51.8,29.38,North,0,0.0,0.0,82,0.00,CLR,SCT,0.04,WeatherDisplay:10.37,2013-08-08 17:56:00,
2013-08-08 10:01:00,57.2,51.4,29.38,North,0,3.5,3.5,81,0.00,CLR,SCT,0.04,WeatherDisplay:10.37,2013-08-08 18:01:00,
2013-08-08 10:06:00,57.6,52.1,29.38,North,0,0.0,0.0,82,0.00,CLR,SCT,0.04,WeatherDisplay:10.37,2013-08-08 18:06:00,
2013-08-08 10:11:00,57.7,51.9,29.38,North,0,0.0,0.0,81,0.00,CLR,SCT,0.04,WeatherDisplay:10.37,2013-08-08 18:11:00,
2013-08-08 10:16:00,58.1,52.0,29.38,North,0,0.0,0.0,80,0.00,CLR,SCT,0.04,WeatherDisplay:10.37,2013-08-08 18:16:00,
2013-08-08 10:21:00,59.5,52.0,29.38,NNW,338,2.6,0.0,76,0.00,CLR,SCT,0.04,WeatherDisplay:10.37,2013-08-08 18:21:00,
2013-08-08 10:26:00,59.7,51.0,29.38,NNW,338,0.0,0.0,73,0.00,CLR,SCT,0.04,WeatherDisplay:10.37,2013-08-08 18:26:00,
2013-08-08 10:31:00,59.2,49.8,29.41,NW,315,5.8,5.8,71,0.00,CLR,SCT,0.04,WeatherDisplay:10.37,2013-08-08 18:31:00,
2013-08-08 10:36:00,58.8,49.8,29.41,NW,315,0.0,0.0,72,0.00,CLR,SCT,0.04,WeatherDisplay:10.37,2013-08-08 18:36:00,
2013-08-08 10:41:00,58.3,49.7,29.41,NNW,338,2.3,0.0,73,0.00,CLR,SCT,0.04,WeatherDisplay:10.37,2013-08-08 18:41:00,
2013-08-08 10:46:00,57.6,49.0,29.38,NNW,338,2.3,0.0,73,0.00,CLR,SCT,0.04,WeatherDisplay:10.37,2013-08-08 18:46:00,
2013-08-08 10:51:00,57.7,50.2,29.38,NNW,338,4.6,4.6,76,0.00,CLR,SCT,0.04,WeatherDisplay:10.37,2013-08-08 18:51:00,
2013-08-08 10:56:00,56.7,49.9,29.38,NW,315,5.8,5.8,78,0.00,CLR,SCT,0.04,WeatherDisplay:10.37,2013-08-08 18:56:00,
2013-08-08 11:01:00,56.3,49.9,29.38,NW,315,4.6,4.6,79,0.00,CLR,SCT,0.04,WeatherDisplay:10.37,2013-08-08 19:01:00,
2013-08-08 11:06:00,56.1,49.7,29.38,NW,315,4.6,4.6,79,0.00,CLR,SCT,0.04,WeatherDisplay:10.37,2013-08-08 19:06:00,
2013-08-08 11:11:00,56.1,49.7,29.38,NW,315,5.4,5.4,79,0.00,CLR,SCT,0.04,WeatherDisplay:10.37,2013-08-08 19:11:00,
2013-08-08 11:16:00,56.5,50.0,29.38,NW,315,4.6,4.6,79,0.00,CLR,SCT,0.04,WeatherDisplay:10.37,2013-08-08 19:16:00,
2013-08-08 11:21:00,57.0,50.2,29.38,NNW,338,7.1,7.1,78,0.00,CLR,SCT,0.04,WeatherDisplay:10.37,2013-08-08 19:21:00,
2013-08-08 11:27:00,56.8,49.4,29.38,NW,315,4.0,4.0,76,0.00,CLR,SCT,0.04,WeatherDisplay:10.37,2013-08-08 19:27:00,
2013-08-08 11:32:00,56.7,48.8,29.38,NW,315,5.8,5.8,75,0.00,CLR,SCT,0.04,WeatherDisplay:10.37,2013-08-08 19:32:00,
2013-08-08 11:37:00,57.4,49.9,29.38,NW,315,6.9,6.9,76,0.00,CLR,SCT,0.04,WeatherDisplay:10.37,2013-08-08 19:37:00,
2013-08-08 11:42:00,57.9,50.4,29.38,NNW,338,2.3,2.3,76,0.00,CLR,SCT,0.04,WeatherDisplay:10.37,2013-08-08 19:42:00,
2013-08-08 11:47:00,57.0,48.8,29.38,NNW,338,8.1,8.1,74,0.00,CLR,SCT,0.04,WeatherDisplay:10.37,2013-08-08 19:47:00,
2013-08-08 11:52:00,57.0,49.2,29.38,NW,315,6.9,6.9,75,0.00,CLR,SCT,0.04,WeatherDisplay:10.37,2013-08-08 19:52:00,
2013-08-08 11:57:00,56.8,49.4,29.38,NW,315,6.2,6.2,76,0.00,CLR,SCT,0.04,WeatherDisplay:10.37,2013-08-08 19:57:00,
2013-08-08 12:02:00,56.5,49.4,29.38,NW,315,9.2,9.2,77,0.00,CLR,SCT,0.04,WeatherDisplay:10.37,2013-08-08 20:02:00,
2013-08-08 12:07:00,56.7,49.5,29.38,NNW,338,5.8,5.8,77,0.00,CLR,SCT,0.04,WeatherDisplay:10.37,2013-08-08 20:07:00,
2013-08-08 12:12:00,56.3,49.2,29.38,NW,315,6.9,6.9,77,0.00,CLR,SCT,0.04,WeatherDisplay:10.37,2013-08-08 20:12:00,
2013-08-08 12:17:00,56.7,49.2,29.41,NW,315,3.5,3.5,76,0.00,CLR,SCT,0.04,WeatherDisplay:10.37,2013-08-08 20:17:00,
2013-08-08 12:22:00,56.8,49.4,29.41,NNW,338,5.8,5.8,76,0.00,CLR,SCT,0.04,WeatherDisplay:10.37,2013-08-08 20:22:00,
2013-08-08 12:27:00,57.9,49.7,29.41,NNW,338,8.1,8.1,74,0.00,CLR,SCT,0.04,WeatherDisplay:10.37,2013-08-08 20:27:00,
2013-08-08 12:32:00,58.3,49.3,29.41,NW,315,4.9,4.9,72,0.00,CLR,SCT,0.04,WeatherDisplay:10.37,2013-08-08 20:32:00,
2013-08-08 12:37:00,58.1,48.0,29.41,NW,315,5.8,5.8,69,0.00,CLR,SCT,0.04,WeatherDisplay:10.37,2013-08-08 20:37:00,
2013-08-08 12:42:00,58.5,48.7,29.41,NNW,338,5.9,5.9,70,0.00,CLR,SCT,0.04,WeatherDisplay:10.37,2013-08-08 20:42:00,
2013-08-08 12:47:00,57.9,47.8,29.41,NNE,22,5.8,5.8,69,0.00,CLR,SCT,0.04,WeatherDisplay:10.37,2013-08-08 20:47:00,
2013-08-08 12:52:00,57.9,47.8,29.41,NNW,338,8.1,8.1,69,0.00,CLR,SCT,0.04,WeatherDisplay:10.37,2013-08-08 20:52:00,
2013-08-08 12:57:00,57.4,47.3,29.41,NNW,338,8.1,8.1,69,0.00,CLR,SCT,0.04,WeatherDisplay:10.37,2013-08-08 20:57:00,
2013-08-08 13:02:00,57.2,47.1,29.41,NW,315,6.9,6.9,69,0.00,CLR,SCT,0.04,WeatherDisplay:10.37,2013-08-08 21:02:00,
2013-08-08 13:07:00,57.6,47.8,29.41,NW,315,4.9,4.9,70,0.00,CLR,SCT,0.04,WeatherDisplay:10.37,2013-08-08 21:07:00,
2013-08-08 13:13:00,57.4,48.1,29.41,NNW,338,6.9,6.9,71,0.00,CLR,SCT,0.04,WeatherDisplay:10.37,2013-08-08 21:13:00,
2013-08-08 13:18:00,57.7,48.8,29.41,NW,315,8.1,8.1,72,0.00,CLR,SCT,0.04,WeatherDisplay:10.37,2013-08-08 21:18:00,
2013-08-08 13:23:00,57.6,48.6,29.41,NNW,338,3.5,3.5,72,0.00,CLR,SCT,0.04,WeatherDisplay:10.37,2013-08-08 21:23:00,
2013-08-08 13:29:00,57.2,48.3,29.41,NW,315,4.0,4.0,72,0.00,CLR,SCT,0.04,WeatherDisplay:10.37,2013-08-08 21:29:00,
2013-08-08 13:34:00,56.7,48.1,29.41,NW,315,5.8,5.8,73,0.00,CLR,SCT,0.04,WeatherDisplay:10.37,2013-08-08 21:34:00,
2013-08-08 13:39:00,57.2,48.6,29.41,NNW,338,5.8,5.8,73,0.00,CLR,SCT,0.04,WeatherDisplay:10.37,2013-08-08 21:39:00,
2013-08-08 13:44:00,57.6,49.0,29.41,NW,315,5.8,5.8,73,0.00,CLR,SCT,0.04,WeatherDisplay:10.37,2013-08-08 21:44:00,
2013-08-08 13:49:00,57.9,48.6,29.41,NW,315,5.8,5.8,71,0.00,CLR,SCT,0.04,WeatherDisplay:10.37,2013-08-08 21:49:00,
2013-08-08 13:54:00,57.6,47.8,29.41,NW,315,5.8,5.8,70,0.00,CLR,SCT,0.04,WeatherDisplay:10.37,2013-08-08 21:54:00,
2013-08-08 14:00:00,56.8,46.8,29.44,WNW,292,5.8,5.8,69,0.00,CLR,SCT,0.04,WeatherDisplay:10.37,2013-08-08 22:00:00,
2013-08-08 14:05:00,56.8,46.8,29.44,NNW,338,6.9,6.9,69,0.00,CLR,SCT,0.04,WeatherDisplay:10.37,2013-08-08 22:05:00,
2013-08-08 14:10:00,57.2,47.1,29.44,North,0,4.6,4.6,69,0.00,CLR,SCT,0.04,WeatherDisplay:10.37,2013-08-08 22:10:00,
2013-08-08 14:15:00,57.6,46.7,29.44,North,0,4.6,4.6,67,0.00,CLR,SCT,0.04,WeatherDisplay:10.37,2013-08-08 22:15:00,
2013-08-08 14:20:00,58.1,47.2,29.44,West,270,4.6,4.6,67,0.00,CLR,SCT,0.04,WeatherDisplay:10.37,2013-08-08 22:20:00,
2013-08-08 14:25:00,57.4,45.7,29.44,NNW,338,5.9,5.9,65,0.00,CLR,SCT,0.04,WeatherDisplay:10.37,2013-08-08 22:25:00,
2013-08-08 14:31:00,56.7,45.0,29.44,NNW,338,8.7,8.7,65,0.00,CLR,SCT,0.04,WeatherDisplay:10.37,2013-08-08 22:31:00,
2013-08-08 14:36:00,55.9,45.1,29.44,NW,315,5.4,5.4,67,0.00,CLR,SCT,0.04,WeatherDisplay:10.37,2013-08-08 22:36:00,
2013-08-08 14:41:00,55.9,45.5,29.44,WNW,292,6.9,6.9,68,0.00,CLR,SCT,0.04,WeatherDisplay:10.37,2013-08-08 22:41:00,
2013-08-08 14:46:00,56.3,45.9,29.44,WNW,292,5.8,5.8,68,0.00,CLR,SCT,0.04,WeatherDisplay:10.37,2013-08-08 22:46:00,
2013-08-08 14:52:00,56.1,45.3,29.44,WNW,292,8.1,8.1,67,0.00,CLR,SCT,0.04,WeatherDisplay:10.37,2013-08-08 22:52:00,
2013-08-08 14:58:00,55.9,45.5,29.44,NW,315,4.6,4.6,68,0.00,CLR,SCT,0.04,WeatherDisplay:10.37,2013-08-08 22:58:00,
2013-08-08 15:03:00,55.6,45.6,29.44,North,0,4.6,4.6,69,0.00,CLR,SCT,0.04,WeatherDisplay:10.37,2013-08-08 23:03:00,
2013-08-08 15:08:00,55.4,45.4,29.44,WNW,292,5.8,5.8,69,0.00,CLR,SCT,0.04,WeatherDisplay:10.37,2013-08-08 23:08:00,
2013-08-08 15:13:00,55.2,45.6,29.44,NW,315,4.9,4.9,70,0.00,CLR,SCT,0.04,WeatherDisplay:10.37,2013-08-08 23:13:00,
2013-08-08 15:19:00,55.0,45.4,29.44,NW,315,5.8,5.8,70,0.00,CLR,SCT,0.04,WeatherDisplay:10.37,2013-08-08 23:19:00,
2013-08-08 15:24:00,55.4,46.2,29.44,NW,315,2.6,0.0,71,0.00,CLR,SCT,0.04,WeatherDisplay:10.37,2013-08-08 23:24:00,
2013-08-08 15:30:00,55.2,46.0,29.44,NW,315,5.8,5.8,71,0.00,CLR,SCT,0.04,WeatherDisplay:10.37,2013-08-08 23:30:00,
2013-08-08 15:36:00,55.0,45.8,29.44,NNW,338,5.8,5.8,71,0.00,CLR,SCT,0.04,WeatherDisplay:10.37,2013-08-08 23:36:00,
2013-08-08 15:41:00,55.0,45.4,29.44,North,0,4.6,4.6,70,0.00,CLR,SCT,0.04,WeatherDisplay:10.37,2013-08-08 23:41:00,
2013-08-08 15:46:00,55.2,46.0,29.44,North,0,3.5,3.5,71,0.00,CLR,SCT,0.04,WeatherDisplay:10.37,2013-08-08 23:46:00,
2013-08-08 15:52:00,55.8,46.1,29.44,NNW,338,5.8,5.8,70,0.00,CLR,SCT,0.04,WeatherDisplay:10.37,2013-08-08 23:52:00,
2013-08-08 15:58:00,55.8,45.7,29.44,NNE,22,4.6,4.6,69,0.00,CLR,SCT,0.04,WeatherDisplay:10.37,2013-08-08 23:58:00,
2013-08-08 16:03:00,55.9,45.9,29.44,NNW,338,0.0,0.0,69,0.00,CLR,SCT,0.04,WeatherDisplay:10.37,2013-08-09 00:03:00,
2013-08-08 16:08:00,55.6,45.2,29.44,NW,315,4.6,4.6,68,0.00,CLR,SCT,0.04,WeatherDisplay:10.37,2013-08-09 00:08:00,
2013-08-08 16:14:00,55.6,45.6,29.44,NW,315,3.1,0.0,69,0.00,CLR,SCT,0.04,WeatherDisplay:10.37,2013-08-09 00:14:00,
2013-08-08 16:19:00,55.6,45.9,29.44,NW,315,0.0,0.0,70,0.00,CLR,SCT,0.04,WeatherDisplay:10.37,2013-08-09 00:19:00,
2013-08-08 16:24:00,55.6,45.9,29.44,NW,315,0.0,0.0,70,0.00,CLR,SCT,0.04,WeatherDisplay:10.37,2013-08-09 00:24:00,
2013-08-08 16:29:00,55.6,45.9,29.44,NNW,338,3.6,3.6,70,0.00,CLR,SCT,0.04,WeatherDisplay:10.37,2013-08-09 00:29:00,
2013-08-08 16:35:00,55.8,46.1,29.44,NNW,338,0.0,0.0,70,0.00,CLR,SCT,0.04,WeatherDisplay:10.37,2013-08-09 00:35:00,
2013-08-08 16:40:00,55.9,45.9,29.44,NNW,338,0.0,0.0,69,0.00,CLR,SCT,0.04,WeatherDisplay:10.37,2013-08-09 00:40:00,
2013-08-08 16:45:00,56.1,46.5,29.44,NNW,338,0.0,0.0,70,0.00,CLR,SCT,0.04,WeatherDisplay:10.37,2013-08-09 00:45:00,
2013-08-08 16:51:00,55.9,45.9,29.44,NNW,338,0.0,0.0,69,0.00,CLR,SCT,0.04,WeatherDisplay:10.37,2013-08-09 00:51:00,
2013-08-08 16:57:00,55.9,46.3,29.44,NNW,338,0.0,0.0,70,0.00,CLR,SCT,0.04,WeatherDisplay:10.37,2013-08-09 00:57:00,
2013-08-08 17:02:00,55.9,46.3,29.44,NNW,338,2.3,0.0,70,0.00,CLR,SCT,0.04,WeatherDisplay:10.37,2013-08-09 01:02:00,
2013-08-08 17:07:00,55.9,47.0,29.44,NNW,338,0.0,0.0,72,0.00,CLR,SCT,0.04,WeatherDisplay:10.37,2013-08-09 01:07:00,
2013-08-08 17:13:00,56.1,47.6,29.44,NNW,338,0.0,0.0,73,0.00,CLR,SCT,0.04,WeatherDisplay:10.37,2013-08-09 01:13:00,
2013-08-08 17:18:00,56.1,47.6,29.44,NNW,338,0.0,0.0,73,0.00,CLR,SCT,0.04,WeatherDisplay:10.37,2013-08-09 01:18:00,
2013-08-08 17:23:00,56.3,47.8,29.44,NNW,338,0.0,0.0,73,0.00,CLR,SCT,0.04,WeatherDisplay:10.37,2013-08-09 01:23:00,
2013-08-08 17:29:00,55.9,46.7,29.44,NNW,338,3.5,0.0,71,0.00,CLR,SCT,0.04,WeatherDisplay:10.37,2013-08-09 01:29:00,
2013-08-08 17:35:00,55.9,47.0,29.44,NNW,338,0.0,0.0,72,0.00,CLR,SCT,0.04,WeatherDisplay:10.37,2013-08-09 01:35:00,
2013-08-08 17:40:00,56.5,49.0,29.44,NNW,338,0.0,0.0,76,0.00,CLR,SCT,0.04,WeatherDisplay:10.37,2013-08-09 01:40:00,
2013-08-08 17:45:00,56.3,48.1,29.44,NNW,338,3.5,3.5,74,0.00,CLR,SCT,0.04,WeatherDisplay:10.37,2013-08-09 01:45:00,
2013-08-08 17:51:00,56.5,48.3,29.44,NW,315,0.0,0.0,74,0.00,CLR,SCT,0.04,WeatherDisplay:10.37,2013-08-09 01:51:00,
2013-08-08 17:56:00,56.8,49.0,29.44,NW,315,0.0,0.0,75,0.00,CLR,SCT,0.04,WeatherDisplay:10.37,2013-08-09 01:56:00,
2013-08-08 18:01:00,56.8,49.0,29.44,NW,315,0.0,0.0,75,0.00,CLR,SCT,0.04,WeatherDisplay:10.37,2013-08-09 02:01:00,
2013-08-08 18:06:00,56.7,48.1,29.44,NW,315,0.0,0.0,73,0.00,CLR,SCT,0.04,WeatherDisplay:10.37,2013-08-09 02:06:00,
2013-08-08 18:12:00,56.8,48.3,29.44,NW,315,0.0,0.0,73,0.00,CLR,SCT,0.04,WeatherDisplay:10.37,2013-08-09 02:12:00,
2013-08-08 18:18:00,56.8,48.6,29.44,NW,315,0.0,0.0,74,0.00,CLR,SCT,0.04,WeatherDisplay:10.37,2013-08-09 02:18:00,
2013-08-08 18:23:00,56.5,47.6,29.44,NW,315,0.0,0.0,72,0.00,CLR,SCT,0.04,WeatherDisplay:10.37,2013-08-09 02:23:00,
2013-08-08 18:28:00,56.5,47.9,29.44,NW,315,0.0,0.0,73,0.00,CLR,SCT,0.04,WeatherDisplay:10.37,2013-08-09 02:28:00,
2013-08-08 18:33:00,56.3,48.5,29.47,NW,315,0.0,0.0,75,0.00,CLR,SCT,0.04,WeatherDisplay:10.37,2013-08-09 02:33:00,
2013-08-08 18:39:00,55.9,48.5,29.47,NW,315,0.0,0.0,76,0.00,CLR,SCT,0.04,WeatherDisplay:10.37,2013-08-09 02:39:00,
2013-08-08 18:44:00,55.8,47.2,29.44,NE,45,4.6,0.0,73,0.00,CLR,SCT,0.04,WeatherDisplay:10.37,2013-08-09 02:44:00,
2013-08-08 18:49:00,55.8,47.2,29.44,NE,45,0.0,0.0,73,0.00,CLR,SCT,0.04,WeatherDisplay:10.37,2013-08-09 02:49:00,
2013-08-08 18:54:00,55.4,48.0,29.44,NE,45,0.0,0.0,76,0.00,CLR,SCT,0.04,WeatherDisplay:10.37,2013-08-09 02:54:00,
2013-08-08 19:00:00,55.2,48.5,29.44,NE,45,0.0,0.0,78,0.00,CLR,SCT,0.04,WeatherDisplay:10.37,2013-08-09 03:00:00,
2013-08-08 19:05:00,54.9,48.8,29.44,NE,45,0.0,0.0,80,0.00,CLR,SCT,0.04,WeatherDisplay:10.37,2013-08-09 03:05:00,
2013-08-08 19:11:00,54.9,49.1,29.44,NE,45,0.0,0.0,81,0.00,CLR,SCT,0.04,WeatherDisplay:10.37,2013-08-09 03:11:00,
2013-08-08 19:16:00,54.9,49.8,29.44,NE,45,0.0,0.0,83,0.00,CLR,SCT,0.04,WeatherDisplay:10.37,2013-08-09 03:16:00,
2013-08-08 19:22:00,54.7,49.6,29.44,NE,45,0.0,0.0,83,0.00,CLR,SCT,0.04,WeatherDisplay:10.37,2013-08-09 03:22:00,
2013-08-08 19:27:00,54.9,50.1,29.44,NE,45,0.0,0.0,84,0.00,CLR,SCT,0.04,WeatherDisplay:10.37,2013-08-09 03:27:00,
2013-08-08 19:32:00,54.1,48.4,29.44,ENE,68,4.6,0.0,81,0.00,CLR,SCT,0.04,WeatherDisplay:10.37,2013-08-09 03:32:00,
2013-08-08 19:38:00,54.3,47.6,29.44,ENE,68,0.0,0.0,78,0.00,CLR,SCT,0.04,WeatherDisplay:10.37,2013-08-09 03:38:00,
2013-08-08 19:43:00,54.3,47.9,29.44,ENE,68,0.0,0.0,79,0.00,CLR,SCT,0.04,WeatherDisplay:10.37,2013-08-09 03:43:00,
2013-08-08 19:48:00,54.5,49.1,29.44,ENE,68,0.0,0.0,82,0.00,CLR,SCT,0.04,WeatherDisplay:10.37,2013-08-09 03:48:00,
2013-08-08 19:53:00,54.5,49.4,29.44,ENE,68,0.0,0.0,83,0.00,CLR,SCT,0.04,WeatherDisplay:10.37,2013-08-09 03:53:00,
2013-08-08 19:58:00,54.7,50.3,29.44,ENE,68,0.0,0.0,85,0.00,CLR,SCT,0.04,WeatherDisplay:10.37,2013-08-09 03:58:00,
2013-08-08 20:01:00,54.5,50.1,29.44,ENE,68,0.0,0.0,85,0.00,CLR,SCT,0.04,WeatherDisplay:10.37,2013-08-09 04:01:00,
2013-08-08 20:06:00,54.5,50.1,29.44,ENE,68,0.0,0.0,85,0.00,CLR,SCT,0.04,WeatherDisplay:10.37,2013-08-09 04:06:00,
2013-08-08 20:11:00,54.5,50.4,29.44,NE,45,0.0,0.0,86,0.00,CLR,SCT,0.04,WeatherDisplay:10.37,2013-08-09 04:11:00,
2013-08-08 20:16:00,54.3,50.2,29.44,NE,45,0.0,0.0,86,0.00,CLR,SCT,0.04,WeatherDisplay:10.37,2013-08-09 04:16:00,
2013-08-08 20:21:00,54.3,50.5,29.44,NE,45,0.0,0.0,87,0.00,CLR,SCT,0.04,WeatherDisplay:10.37,2013-08-09 04:21:00,
2013-08-08 20:26:00,54.1,50.4,29.44,NE,45,0.0,0.0,87,0.00,CLR,SCT,0.04,WeatherDisplay:10.37,2013-08-09 04:26:00,
2013-08-08 20:31:00,54.0,50.2,29.44,NW,315,4.6,0.0,87,0.00,CLR,SCT,0.04,WeatherDisplay:10.37,2013-08-09 04:31:00,
2013-08-08 20:36:00,54.1,50.4,29.44,NW,315,0.0,0.0,87,0.00,CLR,SCT,0.04,WeatherDisplay:10.37,2013-08-09 04:36:00,
2013-08-08 20:41:00,54.1,50.7,29.44,NW,315,0.0,0.0,88,0.00,CLR,SCT,0.04,WeatherDisplay:10.37,2013-08-09 04:41:00,
2013-08-08 20:46:00,54.0,50.5,29.44,NW,315,0.0,0.0,88,0.00,CLR,SCT,0.04,WeatherDisplay:10.37,2013-08-09 04:46:00,
2013-08-08 20:51:00,54.0,50.8,29.44,NW,315,0.0,0.0,89,0.00,CLR,SCT,0.04,WeatherDisplay:10.37,2013-08-09 04:51:00,
2013-08-08 20:56:00,54.0,50.8,29.44,NW,315,0.0,0.0,89,0.00,CLR,SCT,0.04,WeatherDisplay:10.37,2013-08-09 04:56:00,
2013-08-08 21:01:00,54.1,51.3,29.44,NW,315,0.0,0.0,90,0.00,CLR,SCT,0.04,WeatherDisplay:10.37,2013-08-09 05:01:00,
2013-08-08 21:06:00,54.3,51.4,29.44,NW,315,0.0,0.0,90,0.00,CLR,SCT,0.04,WeatherDisplay:10.37,2013-08-09 05:06:00,
2013-08-08 21:12:00,54.5,51.9,29.44,NW,315,0.0,0.0,91,0.00,CLR,SCT,0.04,WeatherDisplay:10.37,2013-08-09 05:12:00,
2013-08-08 21:17:00,54.5,51.9,29.44,NW,315,0.0,0.0,91,0.04,RA,SCT,0.08,WeatherDisplay:10.37,2013-08-09 05:17:00,
2013-08-08 21:22:00,54.5,52.2,29.44,NW,315,0.0,0.0,92,0.04,RA,SCT,0.08,WeatherDisplay:10.37,2013-08-09 05:22:00,
2013-08-08 21:27:00,54.5,52.2,29.44,NW,315,0.0,0.0,92,0.04,CLR,SCT,0.08,WeatherDisplay:10.37,2013-08-09 05:27:00,
2013-08-08 21:32:00,54.5,52.2,29.44,NW,315,0.0,0.0,92,0.04,CLR,SCT,0.08,WeatherDisplay:10.37,2013-08-09 05:32:00,
2013-08-08 21:37:00,54.5,52.2,29.44,NW,315,0.0,0.0,92,0.04,CLR,SCT,0.08,WeatherDisplay:10.37,2013-08-09 05:37:00,
2013-08-08 21:42:00,54.7,52.4,29.44,NW,315,0.0,0.0,92,0.04,CLR,SCT,0.08,WeatherDisplay:10.37,2013-08-09 05:42:00,
2013-08-08 21:47:00,54.7,52.7,29.44,NW,315,0.0,0.0,93,0.04,CLR,SCT,0.08,WeatherDisplay:10.37,2013-08-09 05:47:00,
2013-08-08 21:52:00,54.9,52.9,29.44,NW,315,0.0,0.0,93,0.04,CLR,SCT,0.08,WeatherDisplay:10.37,2013-08-09 05:52:00,
2013-08-08 21:57:00,55.0,53.1,29.44,NW,315,0.0,0.0,93,0.04,CLR,SCT,0.08,WeatherDisplay:10.37,2013-08-09 05:57:00,
2013-08-08 22:02:00,55.0,53.1,29.44,NW,315,0.0,0.0,93,0.04,CLR,SCT,0.08,WeatherDisplay:10.37,2013-08-09 06:02:00,
2013-08-08 22:07:00,55.2,53.2,29.44,NW,315,0.0,0.0,93,0.04,CLR,SCT,0.08,WeatherDisplay:10.37,2013-08-09 06:07:00,
2013-08-08 22:12:00,55.4,53.4,29.44,NW,315,0.0,0.0,93,0.04,CLR,SCT,0.08,WeatherDisplay:10.37,2013-08-09 06:12:00,
2013-08-08 22:17:00,55.6,53.6,29.44,NW,315,0.0,0.0,93,0.00,CLR,SCT,0.08,WeatherDisplay:10.37,2013-08-09 06:17:00,
2013-08-08 22:22:00,55.8,53.8,29.44,NW,315,0.0,0.0,93,0.00,CLR,SCT,0.08,WeatherDisplay:10.37,2013-08-09 06:22:00,
2013-08-08 22:27:00,55.8,54.1,29.44,NW,315,0.0,0.0,94,0.00,CLR,SCT,0.08,WeatherDisplay:10.37,2013-08-09 06:27:00,
2013-08-08 22:32:00,55.9,54.2,29.44,NW,315,0.0,0.0,94,0.00,CLR,SCT,0.08,WeatherDisplay:10.37,2013-08-09 06:32:00,
2013-08-08 22:37:00,56.1,54.4,29.44,NW,315,0.0,0.0,94,0.00,CLR,SCT,0.08,WeatherDisplay:10.37,2013-08-09 06:37:00,
2013-08-08 22:42:00,56.1,54.4,29.44,NW,315,0.0,0.0,94,0.00,CLR,SCT,0.08,WeatherDisplay:10.37,2013-08-09 06:42:00,
2013-08-08 22:47:00,56.3,54.6,29.44,NW,315,0.0,0.0,94,0.00,CLR,SCT,0.08,WeatherDisplay:10.37,2013-08-09 06:47:00,
2013-08-08 22:52:00,56.3,54.6,29.44,NW,315,0.0,0.0,94,0.00,CLR,SCT,0.08,WeatherDisplay:10.37,2013-08-09 06:52:00,
2013-08-08 22:57:00,56.3,54.6,29.44,NW,315,0.0,0.0,94,0.00,CLR,SCT,0.08,WeatherDisplay:10.37,2013-08-09 06:57:00,
2013-08-08 23:02:00,56.5,54.8,29.44,NW,315,0.0,0.0,94,0.00,CLR,SCT,0.08,WeatherDisplay:10.37,2013-08-09 07:02:00,
2013-08-08 23:07:00,56.5,54.8,29.44,NW,315,0.0,0.0,94,0.00,CLR,SCT,0.08,WeatherDisplay:10.37,2013-08-09 07:07:00,
2013-08-08 23:12:00,56.7,55.0,29.44,NW,315,0.0,0.0,94,0.00,CLR,SCT,0.08,WeatherDisplay:10.37,2013-08-09 07:12:00,
2013-08-08 23:17:00,56.7,55.0,29.44,NW,315,0.0,0.0,94,0.00,CLR,SCT,0.08,WeatherDisplay:10.37,2013-08-09 07:17:00,
2013-08-08 23:22:00,56.8,55.4,29.44,NW,315,0.0,0.0,95,0.00,CLR,SCT,0.08,WeatherDisplay:10.37,2013-08-09 07:22:00,
2013-08-08 23:27:00,56.8,55.4,29.44,NW,315,0.0,0.0,95,0.00,CLR,SCT,0.08,WeatherDisplay:10.37,2013-08-09 07:27:00,
2013-08-08 23:32:00,57.0,55.6,29.44,NW,315,0.0,0.0,95,0.00,CLR,SCT,0.08,WeatherDisplay:10.37,2013-08-09 07:32:00,
2013-08-08 23:37:00,56.8,55.4,29.44,NW,315,0.0,0.0,95,0.00,CLR,SCT,0.08,WeatherDisplay:10.37,2013-08-09 07:37:00,
2013-08-08 23:42:00,57.0,55.6,29.44,NW,315,0.0,0.0,95,0.00,CLR,SCT,0.08,WeatherDisplay:10.37,2013-08-09 07:42:00,
2013-08-08 23:47:00,57.2,55.5,29.44,NW,315,0.0,0.0,94,0.00,CLR,SCT,0.08,WeatherDisplay:10.37,2013-08-09 07:47:00,
2013-08-08 23:52:00,57.2,55.5,29.44,NW,315,0.0,0.0,94,0.00,CLR,SCT,0.08,WeatherDisplay:10.37,2013-08-09 07:52:00,
2013-08-08 23:57:00,57.2,55.8,29.44,NW,315,0.0,0.0,95,0.00,CLR,SCT,0.08,WeatherDisplay:10.37,2013-08-09 07:57:00,